createdAt,value
2019-02-07T00:00:30.065Z,-3.90
2019-02-07T00:02:58.500Z,-3.90
2019-02-07T00:05:26.916Z,-3.80
2019-02-07T00:07:55.424Z,-3.90
2019-02-07T00:10:24.042Z,-3.90
2019-02-07T00:12:52.552Z,-3.80
2019-02-07T00:15:21.062Z,-3.80
2019-02-07T00:17:49.496Z,-3.80
2019-02-07T00:20:20.811Z,-4.20
2019-02-07T00:22:49.439Z,-4.30
2019-02-07T00:25:17.944Z,-4.30
2019-02-07T00:27:46.357Z,-4.20
2019-02-07T00:30:17.710Z,-4.10
2019-02-07T00:32:46.275Z,-4.00
2019-02-07T00:35:15.046Z,-3.90
2019-02-07T00:37:43.476Z,-3.90
2019-02-07T00:40:17.057Z,-3.80
2019-02-07T00:42:45.824Z,-3.80
2019-02-07T00:45:15.896Z,-3.70
2019-02-07T00:47:44.367Z,-3.70
2019-02-07T00:50:14.988Z,-3.70
2019-02-07T00:52:43.596Z,-3.70
2019-02-07T00:55:14.830Z,-3.70
2019-02-07T00:57:43.796Z,-3.60
2019-02-07T01:00:15.794Z,-3.60
2019-02-07T01:02:44.350Z,-3.90
2019-02-07T01:05:14.053Z,-4.00
2019-02-07T01:07:42.568Z,-4.30
2019-02-07T01:10:14.264Z,-4.50
2019-02-07T01:12:42.780Z,-4.60
2019-02-07T01:15:12.745Z,-4.50
2019-02-07T01:17:41.427Z,-4.40
2019-02-07T01:20:12.894Z,-4.40
2019-02-07T01:22:41.724Z,-4.30
2019-02-07T01:25:18.266Z,-4.20
2019-02-07T01:27:47.090Z,-4.20
2019-02-07T01:30:18.218Z,-4.30
2019-02-07T01:32:46.917Z,-4.40
2019-02-07T01:35:15.590Z,-4.50
2019-02-07T01:37:46.929Z,-4.50
2019-02-07T01:40:17.724Z,-4.50
2019-02-07T01:42:46.329Z,-4.50
2019-02-07T01:45:20.783Z,-4.50
2019-02-07T01:47:49.856Z,-4.50
2019-02-07T01:50:23.721Z,-4.40
2019-02-07T01:52:52.497Z,-4.40
2019-02-07T01:55:21.072Z,-4.40
2019-02-07T01:57:49.630Z,-4.30
2019-02-07T02:00:19.105Z,-4.30
2019-02-07T02:02:47.847Z,-4.10
2019-02-07T02:05:18.020Z,-4.00
2019-02-07T02:07:47.252Z,-3.90
2019-02-07T02:10:21.284Z,-3.80
2019-02-07T02:12:49.868Z,-3.70
2019-02-07T02:15:24.725Z,-3.60
2019-02-07T02:17:50.625Z,-3.60
2019-02-07T02:20:22.402Z,-3.60
2019-02-07T02:22:50.967Z,-3.50
2019-02-07T02:25:20.576Z,-3.50
2019-02-07T02:27:50.195Z,-3.40
2019-02-07T02:30:29.939Z,-3.40
2019-02-07T02:32:58.420Z,-3.30
2019-02-07T02:35:27.008Z,-3.30
2019-02-07T02:37:57.003Z,-3.20
2019-02-07T02:40:25.875Z,-3.30
2019-02-07T02:42:54.451Z,-3.30
2019-02-07T02:45:36.645Z,-3.30
2019-02-07T02:47:54.718Z,-3.20
2019-02-07T02:50:23.303Z,-3.20
2019-02-07T02:52:51.884Z,-3.20
2019-02-07T02:55:22.087Z,-3.30
2019-02-07T02:57:50.620Z,-3.40
2019-02-07T03:00:20.830Z,-3.40
2019-02-07T03:03:06.648Z,-3.40
2019-02-07T03:05:45.436Z,-3.50
2019-02-07T03:08:18.628Z,-3.50
2019-02-07T03:11:06.582Z,-3.50
2019-02-07T03:13:42.691Z,-3.40
2019-02-07T03:16:15.265Z,-3.60
2019-02-07T03:19:01.307Z,-3.80
2019-02-07T03:21:39.667Z,-4.10
2019-02-07T03:24:15.836Z,-4.00
2019-02-07T03:27:01.848Z,-4.00
2019-02-07T03:29:31.913Z,-3.90
2019-02-07T03:32:02.124Z,-3.90
2019-02-07T03:34:40.838Z,-3.80
2019-02-07T03:37:10.886Z,-3.80
2019-02-07T03:39:44.286Z,-3.70
2019-02-07T03:42:25.992Z,-3.60
2019-02-07T03:44:58.516Z,-3.70
2019-02-07T03:47:46.156Z,-3.60
2019-02-07T03:50:32.063Z,-3.60
2019-02-07T03:53:02.120Z,-3.50
2019-02-07T03:55:38.011Z,-3.50
2019-02-07T03:58:14.196Z,-3.40
2019-02-07T04:00:44.460Z,-3.50
2019-02-07T04:03:17.667Z,-3.60
2019-02-07T04:05:50.428Z,-3.60
2019-02-07T04:08:26.839Z,-3.70
2019-02-07T04:10:59.632Z,-3.70
2019-02-07T04:13:35.772Z,-3.60
2019-02-07T04:16:15.162Z,-3.60
2019-02-07T04:18:55.430Z,-3.50
2019-02-07T04:21:25.498Z,-3.60
2019-02-07T04:24:12.028Z,-3.60
2019-02-07T04:26:58.116Z,-3.60
2019-02-07T04:29:33.916Z,-3.50
2019-02-07T04:32:15.714Z,-3.50
2019-02-07T04:35:02.053Z,-3.60
2019-02-07T04:37:37.782Z,-3.50
2019-02-07T04:40:16.510Z,-3.60
2019-02-07T04:43:02.953Z,-3.60
2019-02-07T04:45:38.869Z,-3.70
2019-02-07T04:48:08.995Z,-3.80
2019-02-07T04:50:41.743Z,-3.80
2019-02-07T04:53:27.021Z,-3.80
2019-02-07T04:56:03.032Z,-3.80
2019-02-07T04:58:49.157Z,-3.80
2019-02-07T05:01:34.124Z,-3.90
2019-02-07T05:04:12.695Z,-4.00
2019-02-07T05:06:48.724Z,-3.90
2019-02-07T05:09:27.259Z,-3.90
2019-02-07T05:12:13.308Z,-3.90
2019-02-07T05:14:46.182Z,-4.00
2019-02-07T05:17:16.408Z,-3.90
2019-02-07T05:20:04.274Z,-3.80
2019-02-07T05:22:46.347Z,-3.80
2019-02-07T05:25:32.711Z,-3.70
2019-02-07T05:28:05.466Z,-3.60
2019-02-07T05:30:35.532Z,-3.60
2019-02-07T05:33:11.604Z,-3.60
2019-02-07T05:35:57.692Z,-3.70
2019-02-07T05:38:33.703Z,-3.70
2019-02-07T05:41:06.463Z,-3.70
2019-02-07T05:43:42.663Z,-3.70
2019-02-07T05:46:15.733Z,-3.80
2019-02-07T05:49:01.735Z,-3.90
2019-02-07T05:51:31.794Z,-3.90
2019-02-07T05:54:02.191Z,-4.00
2019-02-07T05:56:32.247Z,-4.00
2019-02-07T05:59:05.247Z,-4.00
2019-02-07T06:01:47.307Z,-4.20
2019-02-07T06:04:26.185Z,-4.30
2019-02-07T06:07:01.642Z,-4.40
2019-02-07T06:09:34.391Z,-4.50
2019-02-07T06:12:13.402Z,-4.70
2019-02-07T06:14:43.727Z,-4.70
2019-02-07T06:17:30.152Z,-4.80
2019-02-07T06:20:03.176Z,-4.80
2019-02-07T06:22:41.964Z,-4.80
2019-02-07T06:25:28.377Z,-4.80
2019-02-07T06:27:58.488Z,-4.80
2019-02-07T06:30:28.567Z,-4.90
2019-02-07T06:33:04.528Z,-5.00
2019-02-07T06:35:34.592Z,-5.00
2019-02-07T06:38:04.663Z,-4.90
2019-02-07T06:40:43.635Z,-4.80
2019-02-07T06:43:22.663Z,-4.80
2019-02-07T06:46:01.889Z,-4.80
2019-02-07T06:48:37.775Z,-4.80
2019-02-07T06:51:07.907Z,-4.80
2019-02-07T06:53:52.938Z,-4.90
2019-02-07T06:56:23.111Z,-4.80
2019-02-07T06:58:55.987Z,-4.70
2019-02-07T07:01:41.725Z,-4.70
2019-02-07T07:04:12.057Z,-4.60
2019-02-07T07:06:58.509Z,-4.50
2019-02-07T07:09:40.924Z,-4.50
2019-02-07T07:12:11.154Z,-4.40
2019-02-07T07:14:59.493Z,-4.30
2019-02-07T07:17:45.779Z,-4.30
2019-02-07T07:20:34.041Z,-4.30
2019-02-07T07:23:04.116Z,-4.20
2019-02-07T07:25:46.295Z,-4.20
2019-02-07T07:28:16.356Z,-4.30
2019-02-07T07:30:49.132Z,-4.30
2019-02-07T07:33:28.111Z,-4.20
2019-02-07T07:35:58.184Z,-4.10
2019-02-07T07:38:30.779Z,-4.10
2019-02-07T07:41:03.311Z,-4.00
2019-02-07T07:43:42.368Z,-3.90
2019-02-07T07:46:12.767Z,-3.90
2019-02-07T07:48:48.823Z,-3.90
2019-02-07T07:51:18.879Z,-3.70
2019-02-07T07:54:06.744Z,-3.60
2019-02-07T07:56:39.747Z,-3.50
2019-02-07T07:59:09.808Z,-3.30
2019-02-07T08:01:42.595Z,-3.20
2019-02-07T08:04:18.708Z,-3.10
2019-02-07T08:06:48.777Z,-3.00
2019-02-07T08:09:22.168Z,-2.90
2019-02-07T08:11:57.944Z,-2.80
2019-02-07T08:14:28.064Z,-2.70
2019-02-07T08:16:59.236Z,-2.60
2019-02-07T08:19:34.936Z,-2.60
2019-02-07T08:22:16.787Z,-2.50
2019-02-07T08:25:01.741Z,-2.50
2019-02-07T08:27:31.794Z,-2.20
2019-02-07T08:30:10.671Z,-2.00
2019-02-07T08:32:49.447Z,-1.80
2019-02-07T08:35:35.477Z,-1.70
2019-02-07T08:38:21.939Z,-1.50
2019-02-07T08:40:57.682Z,-1.30
2019-02-07T08:43:46.979Z,-1.20
2019-02-07T08:46:22.580Z,-1.10
2019-02-07T08:49:04.735Z,-1.10
2019-02-07T08:51:49.407Z,-0.90
2019-02-07T08:54:28.491Z,-0.70
2019-02-07T08:57:04.243Z,-0.60
2019-02-07T08:59:40.024Z,-0.50
2019-02-07T09:02:10.757Z,-0.30
2019-02-07T09:04:40.811Z,-0.10
2019-02-07T09:07:22.439Z,0.00
2019-02-07T09:10:04.148Z,0.30
2019-02-07T09:12:34.201Z,0.30
2019-02-07T09:15:19.336Z,0.50
2019-02-07T09:17:55.169Z,0.60
2019-02-07T09:20:25.411Z,0.80
2019-02-07T09:22:55.488Z,0.90
2019-02-07T09:25:34.631Z,1.00
2019-02-07T09:28:13.732Z,1.10
2019-02-07T09:30:44.167Z,1.20
2019-02-07T09:33:14.216Z,1.30
2019-02-07T09:35:44.268Z,1.40
2019-02-07T09:38:30.414Z,1.40
2019-02-07T09:41:18.561Z,1.50
2019-02-07T09:44:04.858Z,1.60
2019-02-07T09:46:34.925Z,1.70
2019-02-07T09:49:04.984Z,1.80
2019-02-07T09:51:51.051Z,2.00
2019-02-07T09:54:35.952Z,2.10
2019-02-07T09:57:11.805Z,2.10
2019-02-07T09:59:47.528Z,2.10
2019-02-07T10:02:20.361Z,2.10
2019-02-07T10:04:55.907Z,2.40
2019-02-07T10:07:28.770Z,2.60
2019-02-07T10:09:58.955Z,2.70
2019-02-07T10:12:45.021Z,2.80
2019-02-07T10:15:15.432Z,2.80
2019-02-07T10:18:10.421Z,2.80
2019-02-07T10:20:52.528Z,2.80
2019-02-07T10:23:34.308Z,3.00
2019-02-07T10:26:10.352Z,3.20
2019-02-07T10:28:52.254Z,3.20
2019-02-07T10:31:25.432Z,3.20
2019-02-07T10:34:10.607Z,3.40
2019-02-07T10:36:43.459Z,3.50
2019-02-07T10:39:13.955Z,3.60
2019-02-07T10:41:43.997Z,3.80
2019-02-07T10:44:17.167Z,4.00
2019-02-07T10:46:52.904Z,4.10
2019-02-07T10:49:31.751Z,4.00
2019-02-07T10:52:14.871Z,4.10
2019-02-07T10:54:53.888Z,4.10
2019-02-07T10:57:41.891Z,4.10
2019-02-07T11:00:31.084Z,4.30
2019-02-07T11:03:13.050Z,4.40
2019-02-07T11:05:59.243Z,4.60
2019-02-07T11:08:34.948Z,4.70
2019-02-07T11:11:22.749Z,4.80
2019-02-07T11:14:09.460Z,4.80
2019-02-07T11:16:39.512Z,4.90
2019-02-07T11:19:21.504Z,5.10
2019-02-07T11:21:50.051Z,5.30
2019-02-07T11:24:20.103Z,5.50
2019-02-07T11:27:06.231Z,5.60
2019-02-07T11:29:48.298Z,5.60
2019-02-07T11:32:30.239Z,5.50
2019-02-07T11:35:00.381Z,5.50
2019-02-07T11:37:36.070Z,5.40
2019-02-07T11:40:23.613Z,5.50
2019-02-07T11:42:56.392Z,5.60
2019-02-07T11:45:32.196Z,5.70
2019-02-07T11:48:20.099Z,5.80
2019-02-07T11:50:58.748Z,5.90
2019-02-07T11:53:40.600Z,6.00
2019-02-07T11:56:13.184Z,6.10
2019-02-07T11:58:45.931Z,6.20
2019-02-07T12:01:34.090Z,6.20
2019-02-07T12:04:09.891Z,6.30
2019-02-07T12:06:55.750Z,6.40
2019-02-07T12:09:34.675Z,6.50
2019-02-07T12:12:04.724Z,6.60
2019-02-07T12:14:34.776Z,6.70
2019-02-07T12:17:08.359Z,6.70
2019-02-07T12:19:47.275Z,6.60
2019-02-07T12:22:37.413Z,6.70
2019-02-07T12:25:25.984Z,6.70
2019-02-07T12:27:56.023Z,6.80
2019-02-07T12:30:37.613Z,6.90
2019-02-07T12:33:10.367Z,7.00
2019-02-07T12:35:43.117Z,6.90
2019-02-07T12:38:13.300Z,7.00
2019-02-07T12:40:43.356Z,6.90
2019-02-07T12:43:13.408Z,6.90
2019-02-07T12:45:43.464Z,7.00
2019-02-07T12:48:28.603Z,7.00
2019-02-07T12:51:16.579Z,7.00
2019-02-07T12:53:46.623Z,7.10
2019-02-07T12:56:31.541Z,7.10
2019-02-07T12:59:01.577Z,7.10
2019-02-07T13:01:33.163Z,7.00
2019-02-07T13:04:19.231Z,7.00
2019-02-07T13:06:52.328Z,7.00
2019-02-07T13:09:28.427Z,6.90
2019-02-07T13:11:58.489Z,6.90
2019-02-07T13:14:28.940Z,6.90
2019-02-07T13:17:14.983Z,6.90
2019-02-07T13:19:45.108Z,6.90
2019-02-07T13:22:17.666Z,6.90
2019-02-07T13:24:48.083Z,6.90
2019-02-07T13:27:34.106Z,6.90
2019-02-07T13:30:07.174Z,7.00
2019-02-07T13:32:40.004Z,7.20
2019-02-07T13:35:27.283Z,7.30
2019-02-07T13:38:09.445Z,7.40
2019-02-07T13:40:51.433Z,7.50
2019-02-07T13:43:27.443Z,7.50
2019-02-07T13:45:57.507Z,7.50
2019-02-07T13:48:39.787Z,7.40
2019-02-07T13:51:12.825Z,7.40
2019-02-07T13:53:48.788Z,7.50
2019-02-07T13:56:21.805Z,7.50
2019-02-07T13:58:51.850Z,7.50
2019-02-07T14:01:21.918Z,7.40
2019-02-07T14:03:58.032Z,7.30
2019-02-07T14:06:44.418Z,7.00
2019-02-07T14:09:14.479Z,6.60
2019-02-07T14:11:51.856Z,6.30
2019-02-07T14:14:24.625Z,6.20
2019-02-07T14:16:54.677Z,5.90
2019-02-07T14:19:24.859Z,5.80
2019-02-07T14:22:00.807Z,5.80
2019-02-07T14:24:48.713Z,5.90
2019-02-07T14:27:18.762Z,5.90
2019-02-07T14:30:03.897Z,5.90
2019-02-07T14:32:48.893Z,5.80
2019-02-07T14:35:34.269Z,5.60
2019-02-07T14:38:09.971Z,5.50
2019-02-07T14:40:40.033Z,5.50
2019-02-07T14:43:12.834Z,5.50
2019-02-07T14:46:00.724Z,5.50
2019-02-07T14:48:29.303Z,5.50
2019-02-07T14:50:57.716Z,5.30
2019-02-07T14:53:26.148Z,5.10
2019-02-07T14:55:54.618Z,5.10
2019-02-07T14:58:23.035Z,5.10
2019-02-07T15:00:51.517Z,5.20
2019-02-07T15:03:19.922Z,5.20
2019-02-07T15:05:48.336Z,5.20
2019-02-07T15:08:16.755Z,5.20
2019-02-07T15:10:45.227Z,5.10
2019-02-07T15:13:13.775Z,5.10
2019-02-07T15:15:42.317Z,5.10
2019-02-07T15:18:10.876Z,5.10
2019-02-07T15:20:39.656Z,5.00
2019-02-07T15:23:08.072Z,4.90
2019-02-07T15:25:36.480Z,4.80
2019-02-07T15:28:05.040Z,4.80
2019-02-07T15:30:33.443Z,4.70
2019-02-07T15:33:01.860Z,4.70
2019-02-07T15:35:33.340Z,4.70
2019-02-07T15:38:01.768Z,4.70
2019-02-07T15:40:30.242Z,4.70
2019-02-07T15:42:59.278Z,4.70
2019-02-07T15:45:28.124Z,4.60
2019-02-07T15:47:56.612Z,4.60
2019-02-07T15:50:37.285Z,4.60
2019-02-07T15:53:01.589Z,4.60
2019-02-07T15:55:29.999Z,4.60
2019-02-07T15:57:58.536Z,4.60
2019-02-07T16:00:44.524Z,4.50
2019-02-07T16:03:17.659Z,4.50
2019-02-07T16:05:46.059Z,4.40
2019-02-07T16:08:20.563Z,4.40
2019-02-07T16:10:49.031Z,4.50
2019-02-07T16:13:17.448Z,4.50
2019-02-07T16:15:45.863Z,4.50
2019-02-07T16:18:14.265Z,4.50
2019-02-07T16:20:48.848Z,4.50
2019-02-07T16:23:12.796Z,4.50
2019-02-07T16:25:41.204Z,4.40
2019-02-07T16:28:09.613Z,4.40
2019-02-07T16:30:38.086Z,4.40
2019-02-07T16:33:07.092Z,4.50
2019-02-07T16:35:38.145Z,4.50
2019-02-07T16:38:05.771Z,4.50
2019-02-07T16:40:34.250Z,4.50
2019-02-07T16:43:02.717Z,4.50
2019-02-07T16:45:31.265Z,4.50
2019-02-07T16:48:00.041Z,4.50
2019-02-07T16:50:30.951Z,4.50
2019-02-07T16:53:01.485Z,4.60
2019-02-07T16:55:29.846Z,4.60
2019-02-07T16:57:58.244Z,4.60
2019-02-07T17:00:34.395Z,4.50
2019-02-07T17:03:02.937Z,4.50
2019-02-07T17:05:31.347Z,4.50
2019-02-07T17:07:59.747Z,4.50
2019-02-07T17:10:36.279Z,4.40
2019-02-07T17:13:09.942Z,4.40
2019-02-07T17:15:38.776Z,4.40
2019-02-07T17:18:07.249Z,4.40
2019-02-07T17:20:35.900Z,4.40
2019-02-07T17:23:05.143Z,4.40
2019-02-07T17:25:33.615Z,4.40
2019-02-07T17:28:02.095Z,4.30
2019-02-07T17:30:30.941Z,4.30
2019-02-07T17:32:59.348Z,4.30
2019-02-07T17:35:27.890Z,4.20
2019-02-07T17:37:56.302Z,4.20
2019-02-07T17:40:26.725Z,4.20
2019-02-07T17:42:55.127Z,4.10
2019-02-07T17:45:29.284Z,4.10
2019-02-07T17:47:57.759Z,4.10
2019-02-07T17:50:29.254Z,4.10
2019-02-07T17:52:57.675Z,4.20
2019-02-07T17:55:26.407Z,4.10
2019-02-07T17:57:54.814Z,4.10
2019-02-07T18:00:28.044Z,4.10
2019-02-07T18:02:56.456Z,4.10
2019-02-07T18:05:24.991Z,4.10
2019-02-07T18:07:53.403Z,4.10
2019-02-07T18:10:21.876Z,4.10
2019-02-07T18:12:50.292Z,4.00
2019-02-07T18:15:18.846Z,4.00
2019-02-07T18:17:47.251Z,4.10
2019-02-07T18:20:18.211Z,4.10
2019-02-07T18:22:46.623Z,4.10
2019-02-07T18:25:15.259Z,4.10
2019-02-07T18:27:43.840Z,4.20
2019-02-07T18:30:19.833Z,4.20
2019-02-07T18:32:48.539Z,4.20
2019-02-07T18:35:18.289Z,4.20
2019-02-07T18:37:46.687Z,4.20
2019-02-07T18:40:23.624Z,4.20
2019-02-07T18:42:52.336Z,4.30
2019-02-07T18:45:22.458Z,4.20
2019-02-07T18:47:51.035Z,4.20
2019-02-07T18:50:25.490Z,4.20
2019-02-07T18:52:54.069Z,4.20
2019-02-07T18:55:22.476Z,4.20
2019-02-07T18:57:50.887Z,4.20
2019-02-07T19:00:30.466Z,4.20
2019-02-07T19:02:58.868Z,4.20
2019-02-07T19:05:27.544Z,4.20
2019-02-07T19:07:56.500Z,4.30
2019-02-07T19:10:26.841Z,4.30
2019-02-07T19:12:55.339Z,4.30
2019-02-07T19:15:32.468Z,4.30
2019-02-07T19:18:00.884Z,4.30
2019-02-07T19:20:29.284Z,4.30
2019-02-07T19:22:57.693Z,4.30
2019-02-07T19:25:26.099Z,4.30
2019-02-07T19:27:54.791Z,4.40
2019-02-07T19:30:31.171Z,4.40
2019-02-07T19:33:00.109Z,4.40
2019-02-07T19:35:28.652Z,4.40
2019-02-07T19:37:57.199Z,4.40
2019-02-07T19:40:25.900Z,4.50
2019-02-07T19:42:54.687Z,4.40
2019-02-07T19:45:24.928Z,4.40
2019-02-07T19:47:53.511Z,4.40
2019-02-07T19:50:29.220Z,4.50
2019-02-07T19:52:57.787Z,4.50
2019-02-07T19:55:28.898Z,4.50
2019-02-07T19:57:57.750Z,4.50
2019-02-07T20:00:28.768Z,4.50
2019-02-07T20:02:57.503Z,4.40
2019-02-07T20:05:26.352Z,4.50
2019-02-07T20:07:54.849Z,4.50
2019-02-07T20:10:28.953Z,4.40
2019-02-07T20:12:57.792Z,4.30
2019-02-07T20:15:28.911Z,4.30
2019-02-07T20:20:27.526Z,4.30
2019-02-07T20:22:56.003Z,4.30
2019-02-07T20:25:24.592Z,4.30
2019-02-07T20:27:53.053Z,4.30
2019-02-07T20:30:30.400Z,4.30
2019-02-07T20:32:58.939Z,4.30
2019-02-07T20:35:27.503Z,4.20
2019-02-07T20:37:56.111Z,4.30
2019-02-07T20:40:26.460Z,4.30
2019-02-07T20:42:55.014Z,4.30
2019-02-07T20:45:23.926Z,4.20
2019-02-07T20:47:52.347Z,4.20
2019-02-07T20:50:23.526Z,4.20
2019-02-07T20:52:52.268Z,4.20
2019-02-07T20:55:21.125Z,4.20
2019-02-07T20:57:49.781Z,4.20
2019-02-07T21:00:23.944Z,4.20
2019-02-07T21:02:52.420Z,4.30
2019-02-07T21:05:20.974Z,4.30
2019-02-07T21:07:49.465Z,4.30
2019-02-07T21:10:26.016Z,4.30
2019-02-07T21:12:54.419Z,4.30
2019-02-07T21:15:23.268Z,4.30
2019-02-07T21:17:51.744Z,4.30
2019-02-07T21:20:24.950Z,4.20
2019-02-07T21:22:54.296Z,4.20
2019-02-07T21:25:27.447Z,4.20
2019-02-07T21:27:55.865Z,4.20
2019-02-07T21:30:27.403Z,4.20
2019-02-07T21:32:56.016Z,4.20
2019-02-07T21:35:24.565Z,4.20
2019-02-07T21:37:53.046Z,4.20
2019-02-07T21:40:23.807Z,4.20
2019-02-07T21:42:52.548Z,4.20
2019-02-07T21:45:21.023Z,4.10
2019-02-07T21:47:49.883Z,4.10
2019-02-07T21:50:21.099Z,4.10
2019-02-07T21:52:49.581Z,4.10
2019-02-07T21:55:51.944Z,4.00
2019-02-07T21:58:25.857Z,3.90
2019-02-07T22:01:03.438Z,3.90
2019-02-07T22:03:42.211Z,3.90
2019-02-07T22:06:16.567Z,3.90
2019-02-07T22:09:15.015Z,3.90
2019-02-07T22:11:43.424Z,3.90
2019-02-07T22:14:11.822Z,3.80
2019-02-07T22:16:40.521Z,3.70
2019-02-07T22:19:08.927Z,3.70
2019-02-07T22:21:37.415Z,3.70
2019-02-07T22:24:05.887Z,3.70
2019-02-07T22:26:34.322Z,3.60
2019-02-07T22:29:02.728Z,3.60
2019-02-07T22:31:31.139Z,3.60
2019-02-07T22:33:59.552Z,3.60
2019-02-07T22:36:27.956Z,3.60
2019-02-07T22:38:56.364Z,3.60
2019-02-07T22:41:24.764Z,3.60
2019-02-07T22:43:53.181Z,3.60
2019-02-07T22:46:21.591Z,3.60
2019-02-07T22:48:50.282Z,3.50
2019-02-07T22:51:18.692Z,3.60
2019-02-07T22:53:47.107Z,3.60
2019-02-07T22:56:15.513Z,3.50
2019-02-07T22:58:43.928Z,3.50
2019-02-07T23:01:15.492Z,3.50
2019-02-07T23:03:44.142Z,3.50
2019-02-07T23:06:12.543Z,3.50
2019-02-07T23:08:40.951Z,3.40
2019-02-07T23:11:09.459Z,3.40
2019-02-07T23:13:38.009Z,3.30
2019-02-07T23:16:06.967Z,3.30
2019-02-07T23:18:35.453Z,3.30
2019-02-07T23:21:04.569Z,3.30
2019-02-07T23:23:32.995Z,3.30
2019-02-07T23:26:01.388Z,3.30
2019-02-07T23:28:29.801Z,3.20
2019-02-07T23:30:58.204Z,3.20
2019-02-07T23:33:26.621Z,3.20
2019-02-07T23:35:55.031Z,3.20
2019-02-07T23:38:23.447Z,3.20
2019-02-07T23:40:51.847Z,3.10
2019-02-07T23:43:20.331Z,3.20
2019-02-07T23:45:48.778Z,3.10
2019-02-07T23:48:17.189Z,3.20
2019-02-07T23:50:45.596Z,3.10
2019-02-07T23:53:15.344Z,3.10
2019-02-07T23:55:43.969Z,3.00
2019-02-07T23:58:12.438Z,3.00
